sensor_id;sensor_type;location;lat;lon;timestamp;pressure;altitude;pressure_sealevel;temperature;humidity
27685;BME280;46113;50.130;8.526;2023-11-19T05:30:45;98600.72;;;6.43;92.23
27685;BME280;46113;50.130;8.526;2023-11-19T05:33:12;98599.41;;;6.52;91.49
27685;BME280;46113;50.130;8.526;2023-11-19T05:35:38;98605.59;;;6.69;90.80
27685;BME280;46113;50.130;8.526;2023-11-19T05:38:05;98602.09;;;6.68;90.89
27685;BME280;46113;50.130;8.526;2023-11-19T05:40:32;98616.50;;;6.61;91.46
27685;BME280;46113;50.130;8.526;2023-11-19T05:42:59;98624.19;;;6.64;92.27
27685;BME280;46113;50.130;8.526;2023-11-19T05:45:26;98615.16;;;6.52;92.89
27685;BME280;46113;50.130;8.526;2023-11-19T05:47:53;98623.16;;;6.50;92.15
27685;BME280;46113;50.130;8.526;2023-11-19T05:50:19;98610.53;;;6.57;92.50
27685;BME280;46113;50.130;8.526;2023-11-19T05:52:46;98606.38;;;6.53;92.96
27685;BME280;46113;50.130;8.526;2023-11-19T05:55:13;98600.41;;;6.67;92.07
27685;BME280;46113;50.130;8.526;2023-11-19T05:57:40;98596.16;;;6.64;92.75
27685;BME280;46113;50.130;8.526;2023-11-19T06:00:10;98598.38;;;6.72;92.16
27685;BME280;46113;50.130;8.526;2023-11-19T06:02:39;98607.59;;;6.63;92.94
27685;BME280;46113;50.130;8.526;2023-11-19T06:05:06;98586.47;;;6.65;93.37
27685;BME280;46113;50.130;8.526;2023-11-19T06:07:33;98599.25;;;6.55;94.06
27685;BME280;46113;50.130;8.526;2023-11-19T06:10:00;98596.91;;;6.67;93.12
27685;BME280;46113;50.130;8.526;2023-11-19T06:12:26;98602.97;;;6.85;92.30
27685;BME280;46113;50.130;8.526;2023-11-19T06:14:54;98604.41;;;6.74;93.09
27685;BME280;46113;50.130;8.526;2023-11-19T06:17:20;98602.16;;;6.84;92.55
27685;BME280;46113;50.130;8.526;2023-11-19T06:19:47;98600.31;;;6.69;93.44
27685;BME280;46113;50.130;8.526;2023-11-19T06:22:14;98595.81;;;6.88;92.62
27685;BME280;46113;50.130;8.526;2023-11-19T06:24:41;98605.69;;;6.83;92.45
27685;BME280;46113;50.130;8.526;2023-11-19T06:27:07;98592.06;;;6.92;92.19
27685;BME280;46113;50.130;8.526;2023-11-19T06:29:34;98591.28;;;6.90;92.51
27685;BME280;46113;50.130;8.526;2023-11-19T06:32:01;98599.88;;;6.94;92.23
27685;BME280;46113;50.130;8.526;2023-11-19T06:34:41;98611.94;;;6.98;91.76
27685;BME280;46113;50.130;8.526;2023-11-19T06:37:08;98614.59;;;6.81;93.06
27685;BME280;46113;50.130;8.526;2023-11-19T06:39:35;98633.91;;;6.97;93.71
27685;BME280;46113;50.130;8.526;2023-11-19T06:42:03;98628.97;;;6.91;93.42
27685;BME280;46113;50.130;8.526;2023-11-19T06:44:30;98636.16;;;7.05;92.62
27685;BME280;46113;50.130;8.526;2023-11-19T06:46:56;98635.91;;;7.10;92.71
27685;BME280;46113;50.130;8.526;2023-11-19T06:49:23;98629.41;;;6.99;93.07
27685;BME280;46113;50.130;8.526;2023-11-19T06:51:51;98627.69;;;6.98;94.18
27685;BME280;46113;50.130;8.526;2023-11-19T06:54:17;98623.75;;;7.07;93.14
27685;BME280;46113;50.130;8.526;2023-11-19T06:56:44;98632.94;;;7.16;92.87
27685;BME280;46113;50.130;8.526;2023-11-19T06:59:13;98631.16;;;7.16;93.51
27685;BME280;46113;50.130;8.526;2023-11-19T07:23:31;98631.72;;;7.39;92.33
27685;BME280;46113;50.130;8.526;2023-11-19T07:26:14;98629.69;;;7.44;92.29
27685;BME280;46113;50.130;8.526;2023-11-19T07:35:57;98645.94;;;7.51;91.13
27685;BME280;46113;50.130;8.526;2023-11-19T07:38:30;98645.47;;;7.44;91.76
27685;BME280;46113;50.130;8.526;2023-11-19T07:40:57;98650.63;;;7.62;91.21
27685;BME280;46113;50.130;8.526;2023-11-19T07:43:27;98650.63;;;7.62;90.89
27685;BME280;46113;50.130;8.526;2023-11-19T07:45:58;98644.44;;;7.63;91.05
27685;BME280;46113;50.130;8.526;2023-11-19T07:49:14;98654.88;;;7.49;92.96
27685;BME280;46113;50.130;8.526;2023-11-19T07:51:44;98649.03;;;7.76;91.30
27685;BME280;46113;50.130;8.526;2023-11-19T07:54:10;98650.88;;;7.90;90.51
27685;BME280;46113;50.130;8.526;2023-11-19T07:56:37;98656.66;;;7.80;90.22
27685;BME280;46113;50.130;8.526;2023-11-19T07:59:13;98662.19;;;7.76;91.00
27685;BME280;46113;50.130;8.526;2023-11-19T08:01:40;98660.31;;;7.78;91.01
27685;BME280;46113;50.130;8.526;2023-11-19T08:04:06;98671.97;;;7.57;92.10
27685;BME280;46113;50.130;8.526;2023-11-19T08:06:34;98653.69;;;7.70;91.39
27685;BME280;46113;50.130;8.526;2023-11-19T08:09:03;98652.69;;;7.73;91.82
27685;BME280;46113;50.130;8.526;2023-11-19T08:11:29;98653.34;;;7.93;90.60
27685;BME280;46113;50.130;8.526;2023-11-19T08:14:02;98659.47;;;7.77;90.62
27685;BME280;46113;50.130;8.526;2023-11-19T08:16:30;98658.50;;;7.94;90.78
27685;BME280;46113;50.130;8.526;2023-11-19T08:18:57;98659.78;;;8.03;90.81
27685;BME280;46113;50.130;8.526;2023-11-19T08:21:28;98660.53;;;8.05;90.56
27685;BME280;46113;50.130;8.526;2023-11-19T08:24:18;98668.34;;;8.23;90.49
27685;BME280;46113;50.130;8.526;2023-11-19T08:27:06;98678.31;;;7.86;90.35
27685;BME280;46113;50.130;8.526;2023-11-19T08:33:22;98655.63;;;8.30;88.48
27685;BME280;46113;50.130;8.526;2023-11-19T08:37:02;98655.03;;;7.94;88.71
27685;BME280;46113;50.130;8.526;2023-11-19T08:45:16;98662.44;;;8.50;86.49
27685;BME280;46113;50.130;8.526;2023-11-19T08:47:43;98656.28;;;8.49;86.16
27685;BME280;46113;50.130;8.526;2023-11-19T08:50:12;98648.22;;;8.36;86.76
27685;BME280;46113;50.130;8.526;2023-11-19T08:52:53;98654.72;;;8.61;86.86
27685;BME280;46113;50.130;8.526;2023-11-19T08:58:53;98657.06;;;8.52;86.70
27685;BME280;46113;50.130;8.526;2023-11-19T09:02:22;98671.41;;;8.62;86.16
27685;BME280;46113;50.130;8.526;2023-11-19T09:05:17;98668.28;;;8.55;86.05
27685;BME280;46113;50.130;8.526;2023-11-19T09:12:57;98674.28;;;9.02;84.97
27685;BME280;46113;50.130;8.526;2023-11-19T09:15:30;98661.34;;;8.83;84.42
27685;BME280;46113;50.130;8.526;2023-11-19T09:27:55;98662.47;;;8.65;84.62
27685;BME280;46113;50.130;8.526;2023-11-19T09:30:22;98660.56;;;8.67;84.76
27685;BME280;46113;50.130;8.526;2023-11-19T09:32:49;98668.56;;;8.65;84.92
27685;BME280;46113;50.130;8.526;2023-11-19T09:35:16;98664.38;;;9.06;83.47
27685;BME280;46113;50.130;8.526;2023-11-19T09:37:43;98663.75;;;9.17;82.66
27685;BME280;46113;50.130;8.526;2023-11-19T09:47:23;98680.84;;;8.95;82.71
27685;BME280;46113;50.130;8.526;2023-11-19T09:49:52;98679.09;;;8.96;82.32
27685;BME280;46113;50.130;8.526;2023-11-19T09:52:20;98676.13;;;8.86;83.00
27685;BME280;46113;50.130;8.526;2023-11-19T09:54:53;98668.88;;;8.75;83.53
27685;BME280;46113;50.130;8.526;2023-11-19T09:57:27;98668.09;;;8.73;83.02
27685;BME280;46113;50.130;8.526;2023-11-19T10:00:08;98674.13;;;8.60;84.41
27685;BME280;46113;50.130;8.526;2023-11-19T10:02:47;98680.34;;;8.59;84.59
27685;BME280;46113;50.130;8.526;2023-11-19T10:05:24;98679.84;;;8.53;85.67
27685;BME280;46113;50.130;8.526;2023-11-19T10:07:56;98692.22;;;8.67;85.43
27685;BME280;46113;50.130;8.526;2023-11-19T10:10:24;98688.41;;;8.56;85.55
27685;BME280;46113;50.130;8.526;2023-11-19T10:12:51;98690.81;;;8.75;84.61
27685;BME280;46113;50.130;8.526;2023-11-19T10:15:22;98682.16;;;8.73;84.12
27685;BME280;46113;50.130;8.526;2023-11-19T10:17:51;98692.41;;;8.78;83.90
27685;BME280;46113;50.130;8.526;2023-11-19T10:20:22;98700.31;;;8.78;83.64
27685;BME280;46113;50.130;8.526;2023-11-19T10:22:55;98684.50;;;8.78;83.58
27685;BME280;46113;50.130;8.526;2023-11-19T10:25:28;98682.16;;;8.73;82.97
27685;BME280;46113;50.130;8.526;2023-11-19T10:27:56;98685.28;;;8.80;82.91
27685;BME280;46113;50.130;8.526;2023-11-19T10:30:30;98700.44;;;8.76;82.01
27685;BME280;46113;50.130;8.526;2023-11-19T10:33:05;98681.28;;;8.58;82.58
27685;BME280;46113;50.130;8.526;2023-11-19T10:36:04;98679.22;;;8.78;81.55
27685;BME280;46113;50.130;8.526;2023-11-19T10:38:31;98676.22;;;8.70;81.61
27685;BME280;46113;50.130;8.526;2023-11-19T10:40:58;98677.38;;;8.80;80.69
27685;BME280;46113;50.130;8.526;2023-11-19T10:43:28;98687.44;;;8.73;79.70
27685;BME280;46113;50.130;8.526;2023-11-19T10:46:11;98682.63;;;8.80;79.33
27685;BME280;46113;50.130;8.526;2023-11-19T10:48:42;98674.81;;;8.79;78.88
27685;BME280;46113;50.130;8.526;2023-11-19T10:51:18;98672.38;;;8.90;78.42
27685;BME280;46113;50.130;8.526;2023-11-19T10:53:51;98667.53;;;8.68;78.50
27685;BME280;46113;50.130;8.526;2023-11-19T10:56:36;98669.63;;;8.77;78.48
27685;BME280;46113;50.130;8.526;2023-11-19T10:59:23;98664.69;;;8.56;78.54
27685;BME280;46113;50.130;8.526;2023-11-19T11:02:45;98647.13;;;8.86;78.01
27685;BME280;46113;50.130;8.526;2023-11-19T11:05:54;98646.84;;;8.76;77.67
27685;BME280;46113;50.130;8.526;2023-11-19T11:08:53;98651.72;;;8.82;76.68
27685;BME280;46113;50.130;8.526;2023-11-19T11:50:33;98624.97;;;9.74;72.91
27685;BME280;46113;50.130;8.526;2023-11-19T11:53:34;98620.91;;;9.83;72.65
27685;BME280;46113;50.130;8.526;2023-11-19T12:05:14;98633.81;;;9.46;71.63
27685;BME280;46113;50.130;8.526;2023-11-19T12:31:06;98614.22;;;9.35;72.80
27685;BME280;46113;50.130;8.526;2023-11-19T13:06:18;98587.22;;;8.73;63.87
27685;BME280;46113;50.130;8.526;2023-11-19T13:08:56;98590.41;;;8.64;62.54
27685;BME280;46113;50.130;8.526;2023-11-19T13:11:36;98596.25;;;8.69;63.79
27685;BME280;46113;50.130;8.526;2023-11-19T13:14:18;98592.97;;;8.35;63.79
27685;BME280;46113;50.130;8.526;2023-11-19T13:17:16;98590.78;;;8.58;64.73
27685;BME280;46113;50.130;8.526;2023-11-19T13:19:51;98587.16;;;8.44;64.38
27685;BME280;46113;50.130;8.526;2023-11-19T13:22:23;98583.81;;;8.57;64.62
27685;BME280;46113;50.130;8.526;2023-11-19T13:24:50;98589.09;;;8.57;64.70
27685;BME280;46113;50.130;8.526;2023-11-19T13:27:17;98588.38;;;8.39;64.57
27685;BME280;46113;50.130;8.526;2023-11-19T13:29:43;98581.53;;;8.50;63.80
27685;BME280;46113;50.130;8.526;2023-11-19T13:32:10;98586.81;;;8.65;64.09
27685;BME280;46113;50.130;8.526;2023-11-19T13:34:37;98588.25;;;8.56;65.55
27685;BME280;46113;50.130;8.526;2023-11-19T13:37:03;98588.25;;;8.40;66.26
27685;BME280;46113;50.130;8.526;2023-11-19T13:39:35;98592.78;;;8.38;65.52
27685;BME280;46113;50.130;8.526;2023-11-19T13:42:02;98587.53;;;8.38;66.08
27685;BME280;46113;50.130;8.526;2023-11-19T13:44:32;98578.00;;;8.35;66.84
27685;BME280;46113;50.130;8.526;2023-11-19T13:47:00;98581.50;;;8.05;68.38
27685;BME280;46113;50.130;8.526;2023-11-19T13:49:32;98575.25;;;8.22;66.51
27685;BME280;46113;50.130;8.526;2023-11-19T13:52:01;98576.13;;;8.23;66.83
27685;BME280;46113;50.130;8.526;2023-11-19T13:54:31;98572.72;;;8.21;67.02
27685;BME280;46113;50.130;8.526;2023-11-19T13:57:06;98568.66;;;8.30;66.30
27685;BME280;46113;50.130;8.526;2023-11-19T13:59:48;98575.25;;;8.53;66.69
27685;BME280;46113;50.130;8.526;2023-11-19T14:02:14;98565.63;;;8.52;67.61
27685;BME280;46113;50.130;8.526;2023-11-19T14:04:49;98572.81;;;8.65;67.05
27685;BME280;46113;50.130;8.526;2023-11-19T14:07:16;98570.81;;;8.68;65.79
27685;BME280;46113;50.130;8.526;2023-11-19T14:09:42;98568.47;;;8.78;66.51
27685;BME280;46113;50.130;8.526;2023-11-19T14:12:10;98556.06;;;8.80;67.48
27685;BME280;46113;50.130;8.526;2023-11-19T14:14:39;98554.44;;;8.92;66.25
27685;BME280;46113;50.130;8.526;2023-11-19T14:17:06;98554.25;;;8.81;67.66
27685;BME280;46113;50.130;8.526;2023-11-19T14:19:37;98553.50;;;8.93;68.06
27685;BME280;46113;50.130;8.526;2023-11-19T14:22:05;98545.28;;;8.83;66.17
27685;BME280;46113;50.130;8.526;2023-11-19T14:24:32;98556.22;;;8.92;66.35
27685;BME280;46113;50.130;8.526;2023-11-19T14:26:59;98564.31;;;8.88;68.23
27685;BME280;46113;50.130;8.526;2023-11-19T14:29:26;98564.81;;;8.66;69.31
27685;BME280;46113;50.130;8.526;2023-11-19T14:31:53;98569.88;;;8.69;68.01
27685;BME280;46113;50.130;8.526;2023-11-19T14:34:20;98559.50;;;8.81;67.20
27685;BME280;46113;50.130;8.526;2023-11-19T14:36:47;98559.50;;;8.81;66.58
27685;BME280;46113;50.130;8.526;2023-11-19T14:39:14;98560.38;;;8.96;65.96
27685;BME280;46113;50.130;8.526;2023-11-19T14:41:42;98558.00;;;8.91;66.05
27685;BME280;46113;50.130;8.526;2023-11-19T14:44:10;98557.16;;;8.90;64.89
27685;BME280;46113;50.130;8.526;2023-11-19T14:46:36;98552.63;;;9.07;64.41
27685;BME280;46113;50.130;8.526;2023-11-19T14:49:03;98555.94;;;8.96;65.12
27685;BME280;46113;50.130;8.526;2023-11-19T14:51:38;98555.56;;;9.02;64.96
27685;BME280;46113;50.130;8.526;2023-11-19T14:54:05;98557.00;;;8.65;64.78
27685;BME280;46113;50.130;8.526;2023-11-19T14:56:32;98555.56;;;8.73;64.65
27685;BME280;46113;50.130;8.526;2023-11-19T14:58:59;98544.28;;;8.71;62.74
27685;BME280;46113;50.130;8.526;2023-11-19T15:01:26;98548.88;;;8.97;62.29
27685;BME280;46113;50.130;8.526;2023-11-19T15:03:55;98544.16;;;9.02;63.34
27685;BME280;46113;50.130;8.526;2023-11-19T15:06:27;98544.44;;;8.97;62.57
27685;BME280;46113;50.130;8.526;2023-11-19T15:09:01;98535.03;;;8.93;63.41
27685;BME280;46113;50.130;8.526;2023-11-19T15:11:55;98537.94;;;8.88;62.42
27685;BME280;46113;50.130;8.526;2023-11-19T15:14:22;98531.06;;;9.00;62.69
27685;BME280;46113;50.130;8.526;2023-11-19T15:16:51;98526.75;;;8.85;61.76
27685;BME280;46113;50.130;8.526;2023-11-19T15:19:18;98537.09;;;8.88;62.16
27685;BME280;46113;50.130;8.526;2023-11-19T15:22:35;98534.66;;;8.70;62.11
27685;BME280;46113;50.130;8.526;2023-11-19T15:29:07;98541.81;;;8.83;61.81
27685;BME280;46113;50.130;8.526;2023-11-19T15:32:46;98560.28;;;8.83;61.62
27685;BME280;46113;50.130;8.526;2023-11-19T15:36:01;98558.16;;;8.44;60.76
27685;BME280;46113;50.130;8.526;2023-11-19T15:38:30;98562.53;;;8.60;61.41
27685;BME280;46113;50.130;8.526;2023-11-19T15:40:57;98562.25;;;8.65;61.95
27685;BME280;46113;50.130;8.526;2023-11-19T15:43:56;98557.47;;;8.71;62.30
27685;BME280;46113;50.130;8.526;2023-11-19T15:46:35;98558.50;;;8.54;60.18
27685;BME280;46113;50.130;8.526;2023-11-19T15:49:31;98554.16;;;8.82;61.50
27685;BME280;46113;50.130;8.526;2023-11-19T15:52:03;98552.66;;;8.49;61.41
27685;BME280;46113;50.130;8.526;2023-11-19T15:54:39;98558.28;;;8.57;61.28
27685;BME280;46113;50.130;8.526;2023-11-19T16:00:46;98568.00;;;8.26;62.14
27685;BME280;46113;50.130;8.526;2023-11-19T16:07:07;98580.53;;;8.22;63.20
27685;BME280;46113;50.130;8.526;2023-11-19T16:10:21;98581.44;;;8.07;62.10
27685;BME280;46113;50.130;8.526;2023-11-19T16:13:08;98579.66;;;8.22;61.20
27685;BME280;46113;50.130;8.526;2023-11-19T16:15:36;98593.78;;;8.21;61.82
27685;BME280;46113;50.130;8.526;2023-11-19T16:18:03;98593.50;;;8.11;61.77
27685;BME280;46113;50.130;8.526;2023-11-19T16:20:30;98591.03;;;8.39;62.21
27685;BME280;46113;50.130;8.526;2023-11-19T16:23:01;98589.75;;;8.15;61.23
27685;BME280;46113;50.130;8.526;2023-11-19T16:25:30;98589.88;;;8.28;61.81
27685;BME280;46113;50.130;8.526;2023-11-19T16:27:57;98598.69;;;8.13;61.33
27685;BME280;46113;50.130;8.526;2023-11-19T16:30:25;98599.69;;;8.10;61.39
27685;BME280;46113;50.130;8.526;2023-11-19T16:32:56;98597.31;;;8.05;61.04
27685;BME280;46113;50.130;8.526;2023-11-19T16:35:23;98606.97;;;8.21;61.48
27685;BME280;46113;50.130;8.526;2023-11-19T16:37:50;98602.50;;;8.07;61.67
27685;BME280;46113;50.130;8.526;2023-11-19T16:40:17;98591.31;;;8.03;60.81
27685;BME280;46113;50.130;8.526;2023-11-19T16:42:44;98595.13;;;8.28;61.37
27685;BME280;46113;50.130;8.526;2023-11-19T16:45:15;98589.00;;;8.28;61.83
27685;BME280;46113;50.130;8.526;2023-11-19T16:47:42;98598.41;;;8.17;61.24
27685;BME280;46113;50.130;8.526;2023-11-19T16:50:11;98593.78;;;8.21;61.61
27685;BME280;46113;50.130;8.526;2023-11-19T16:52:39;98594.53;;;8.08;61.63
27685;BME280;46113;50.130;8.526;2023-11-19T16:55:06;98593.00;;;8.04;61.47
27685;BME280;46113;50.130;8.526;2023-11-19T16:57:39;98595.88;;;8.30;61.13
27685;BME280;46113;50.130;8.526;2023-11-19T17:00:07;98597.78;;;8.28;60.94
27685;BME280;46113;50.130;8.526;2023-11-19T17:02:35;98606.13;;;8.20;60.80
27685;BME280;46113;50.130;8.526;2023-11-19T17:05:04;98610.75;;;8.31;61.07
27685;BME280;46113;50.130;8.526;2023-11-19T17:07:33;98604.81;;;8.28;61.90
27685;BME280;46113;50.130;8.526;2023-11-19T17:10:00;98599.06;;;8.21;60.74
27685;BME280;46113;50.130;8.526;2023-11-19T17:12:32;98606.72;;;8.40;61.49
27685;BME280;46113;50.130;8.526;2023-11-19T17:14:58;98607.31;;;8.15;61.45
27685;BME280;46113;50.130;8.526;2023-11-19T17:17:31;98615.59;;;8.08;61.23
27685;BME280;46113;50.130;8.526;2023-11-19T17:20:07;98608.44;;;8.10;60.77
27685;BME280;46113;50.130;8.526;2023-11-19T17:22:37;98618.16;;;8.10;60.75
27685;BME280;46113;50.130;8.526;2023-11-19T17:25:05;98625.25;;;8.24;61.86
27685;BME280;46113;50.130;8.526;2023-11-19T17:27:33;98625.53;;;8.03;61.26
27685;BME280;46113;50.130;8.526;2023-11-19T17:30:00;98626.72;;;8.14;61.68
27685;BME280;46113;50.130;8.526;2023-11-19T17:32:28;98626.72;;;7.97;61.90
27685;BME280;46113;50.130;8.526;2023-11-19T17:34:57;98624.81;;;7.85;61.10
27685;BME280;46113;50.130;8.526;2023-11-19T17:37:23;98629.31;;;7.83;61.08
27685;BME280;46113;50.130;8.526;2023-11-19T17:39:50;98637.44;;;7.94;61.02
27685;BME280;46113;50.130;8.526;2023-11-19T17:42:18;98643.41;;;7.66;62.14
27685;BME280;46113;50.130;8.526;2023-11-19T17:44:45;98625.06;;;7.80;61.45
27685;BME280;46113;50.130;8.526;2023-11-19T17:47:12;98621.16;;;7.71;62.11
27685;BME280;46113;50.130;8.526;2023-11-19T17:49:39;98624.38;;;7.77;61.30
27685;BME280;46113;50.130;8.526;2023-11-19T17:52:06;98623.72;;;7.73;60.29
27685;BME280;46113;50.130;8.526;2023-11-19T17:54:36;98616.34;;;7.64;61.85
27685;BME280;46113;50.130;8.526;2023-11-19T17:57:04;98616.91;;;7.85;61.10
27685;BME280;46113;50.130;8.526;2023-11-19T17:59:31;98615.69;;;7.91;60.70
27685;BME280;46113;50.130;8.526;2023-11-19T18:01:59;98629.94;;;7.72;61.48
27685;BME280;46113;50.130;8.526;2023-11-19T18:04:28;98620.81;;;7.62;61.55
27685;BME280;46113;50.130;8.526;2023-11-19T18:06:55;98629.66;;;7.61;60.60
27685;BME280;46113;50.130;8.526;2023-11-19T18:09:22;98632.00;;;7.81;61.24
27685;BME280;46113;50.130;8.526;2023-11-19T18:11:49;98631.28;;;7.79;61.02
27685;BME280;46113;50.130;8.526;2023-11-19T18:14:24;98623.88;;;7.86;60.82
27685;BME280;46113;50.130;8.526;2023-11-19T18:16:51;98627.19;;;7.74;61.06
27685;BME280;46113;50.130;8.526;2023-11-19T18:19:18;98620.50;;;7.68;60.56
27685;BME280;46113;50.130;8.526;2023-11-19T18:21:45;98613.94;;;7.75;60.78
27685;BME280;46113;50.130;8.526;2023-11-19T18:24:12;98619.78;;;7.64;60.68
27685;BME280;46113;50.130;8.526;2023-11-19T18:26:40;98629.31;;;7.67;61.05
27685;BME280;46113;50.130;8.526;2023-11-19T18:29:10;98629.91;;;7.56;61.30
27685;BME280;46113;50.130;8.526;2023-11-19T18:31:37;98623.19;;;7.50;61.64
27685;BME280;46113;50.130;8.526;2023-11-19T18:34:04;98631.53;;;7.58;61.95
27685;BME280;46113;50.130;8.526;2023-11-19T18:36:37;98637.66;;;7.43;61.70
27685;BME280;46113;50.130;8.526;2023-11-19T18:39:06;98631.53;;;7.42;61.58
27685;BME280;46113;50.130;8.526;2023-11-19T18:41:36;98641.03;;;7.45;61.49
27685;BME280;46113;50.130;8.526;2023-11-19T18:44:03;98641.97;;;7.44;61.94
27685;BME280;46113;50.130;8.526;2023-11-19T18:46:30;98639.84;;;7.51;61.92
27685;BME280;46113;50.130;8.526;2023-11-19T18:48:58;98645.88;;;7.53;62.71
27685;BME280;46113;50.130;8.526;2023-11-19T18:51:26;98644.25;;;7.50;61.91
27685;BME280;46113;50.130;8.526;2023-11-19T18:53:54;98651.47;;;7.47;61.85
27685;BME280;46113;50.130;8.526;2023-11-19T18:56:21;98653.03;;;7.51;61.27
27685;BME280;46113;50.130;8.526;2023-11-19T18:58:48;98646.66;;;7.55;62.08
27685;BME280;46113;50.130;8.526;2023-11-19T19:01:15;98648.28;;;7.57;61.69
27685;BME280;46113;50.130;8.526;2023-11-19T19:03:44;98640.09;;;7.30;62.07
27685;BME280;46113;50.130;8.526;2023-11-19T19:06:11;98639.16;;;7.31;62.28
27685;BME280;46113;50.130;8.526;2023-11-19T19:08:38;98640.78;;;7.34;62.79
27685;BME280;46113;50.130;8.526;2023-11-19T19:11:06;98644.41;;;7.31;62.23
27685;BME280;46113;50.130;8.526;2023-11-19T19:13:40;98639.31;;;7.12;62.15
27685;BME280;46113;50.130;8.526;2023-11-19T19:16:10;98642.13;;;6.91;63.06
27685;BME280;46113;50.130;8.526;2023-11-19T19:18:37;98648.28;;;7.08;62.11
27685;BME280;46113;50.130;8.526;2023-11-19T19:21:04;98638.25;;;6.81;63.36
27685;BME280;46113;50.130;8.526;2023-11-19T19:23:31;98634.38;;;6.88;63.40
27685;BME280;46113;50.130;8.526;2023-11-19T19:25:58;98633.38;;;6.73;63.55
27685;BME280;46113;50.130;8.526;2023-11-19T19:28:27;98636.25;;;6.68;63.59
27685;BME280;46113;50.130;8.526;2023-11-19T19:30:56;98639.19;;;6.79;63.74
27685;BME280;46113;50.130;8.526;2023-11-19T19:33:24;98643.69;;;6.77;63.76
27685;BME280;46113;50.130;8.526;2023-11-19T19:35:51;98649.88;;;6.59;64.33
27685;BME280;46113;50.130;8.526;2023-11-19T19:38:18;98640.03;;;6.80;63.25
27685;BME280;46113;50.130;8.526;2023-11-19T19:40:44;98637.13;;;6.69;63.76
27685;BME280;46113;50.130;8.526;2023-11-19T19:43:11;98655.03;;;6.78;64.34
27685;BME280;46113;50.130;8.526;2023-11-19T19:45:38;98651.78;;;6.73;64.42
27685;BME280;46113;50.130;8.526;2023-11-19T19:48:05;98659.06;;;6.85;64.49
27685;BME280;46113;50.130;8.526;2023-11-19T19:50:32;98651.44;;;6.97;64.03
27685;BME280;46113;50.130;8.526;2023-11-19T19:52:59;98661.53;;;6.88;64.46
27685;BME280;46113;50.130;8.526;2023-11-19T19:55:25;98660.72;;;7.04;64.04
27685;BME280;46113;50.130;8.526;2023-11-19T19:57:53;98654.75;;;7.18;64.31
27685;BME280;46113;50.130;8.526;2023-11-19T20:00:19;98659.22;;;7.16;63.29
27685;BME280;46113;50.130;8.526;2023-11-19T20:02:49;98659.22;;;7.16;63.55
27685;BME280;46113;50.130;8.526;2023-11-19T20:05:17;98653.06;;;7.17;62.65
27685;BME280;46113;50.130;8.526;2023-11-19T20:07:45;98652.28;;;7.15;62.27
27685;BME280;46113;50.130;8.526;2023-11-19T20:10:14;98648.31;;;7.40;62.16
27685;BME280;46113;50.130;8.526;2023-11-19T20:12:41;98639.09;;;7.33;62.58
27685;BME280;46113;50.130;8.526;2023-11-19T20:15:09;98640.19;;;7.28;61.94
27685;BME280;46113;50.130;8.526;2023-11-19T20:17:37;98652.22;;;7.49;61.89
27685;BME280;46113;50.130;8.526;2023-11-19T20:20:05;98646.97;;;7.49;62.47
27685;BME280;46113;50.130;8.526;2023-11-19T20:22:33;98649.63;;;7.65;62.11
27685;BME280;46113;50.130;8.526;2023-11-19T20:25:00;98652.16;;;7.66;62.36
27685;BME280;46113;50.130;8.526;2023-11-19T20:27:27;98647.66;;;7.68;62.07
27685;BME280;46113;50.130;8.526;2023-11-19T20:29:54;98653.28;;;7.62;61.50
27685;BME280;46113;50.130;8.526;2023-11-19T20:32:21;98644.19;;;7.52;61.10
27685;BME280;46113;50.130;8.526;2023-11-19T20:34:48;98643.41;;;7.82;62.25
27685;BME280;46113;50.130;8.526;2023-11-19T20:37:15;98631.34;;;7.62;61.64
27685;BME280;46113;50.130;8.526;2023-11-19T20:39:41;98641.03;;;7.77;61.62
27685;BME280;46113;50.130;8.526;2023-11-19T20:42:08;98641.53;;;7.84;61.96
27685;BME280;46113;50.130;8.526;2023-11-19T20:44:35;98652.91;;;7.68;62.57
27685;BME280;46113;50.130;8.526;2023-11-19T20:47:03;98643.69;;;7.77;61.84
27685;BME280;46113;50.130;8.526;2023-11-19T20:49:31;98646.47;;;7.90;61.81
27685;BME280;46113;50.130;8.526;2023-11-19T20:51:58;98651.06;;;7.70;61.77
27685;BME280;46113;50.130;8.526;2023-11-19T20:54:25;98642.06;;;7.75;62.50
27685;BME280;46113;50.130;8.526;2023-11-19T20:56:54;98642.81;;;7.61;63.84
27685;BME280;46113;50.130;8.526;2023-11-19T20:59:21;98639.84;;;7.67;63.24
27685;BME280;46113;50.130;8.526;2023-11-19T21:01:48;98646.22;;;7.63;64.33
27685;BME280;46113;50.130;8.526;2023-11-19T21:04:14;98646.03;;;7.82;63.53
27685;BME280;46113;50.130;8.526;2023-11-19T21:06:42;98644.59;;;7.76;63.54
27685;BME280;46113;50.130;8.526;2023-11-19T21:09:13;98655.91;;;7.62;64.26
27685;BME280;46113;50.130;8.526;2023-11-19T21:11:43;98657.50;;;7.65;65.65
27685;BME280;46113;50.130;8.526;2023-11-19T21:14:09;98636.44;;;7.33;68.62
27685;BME280;46113;50.130;8.526;2023-11-19T21:16:37;98648.50;;;7.37;69.71
27685;BME280;46113;50.130;8.526;2023-11-19T21:19:03;98643.72;;;7.11;70.84
27685;BME280;46113;50.130;8.526;2023-11-19T21:21:30;98632.72;;;7.03;72.00
27685;BME280;46113;50.130;8.526;2023-11-19T21:23:57;98640.94;;;6.97;71.86
27685;BME280;46113;50.130;8.526;2023-11-19T21:26:25;98638.63;;;6.90;72.06
27685;BME280;46113;50.130;8.526;2023-11-19T21:28:51;98641.25;;;6.90;71.96
27685;BME280;46113;50.130;8.526;2023-11-19T21:31:18;98638.19;;;7.16;71.39
27685;BME280;46113;50.130;8.526;2023-11-19T21:33:45;98630.00;;;7.22;70.40
27685;BME280;46113;50.130;8.526;2023-11-19T21:36:12;98631.88;;;7.36;69.69
27685;BME280;46113;50.130;8.526;2023-11-19T21:38:39;98633.81;;;7.33;68.76
27685;BME280;46113;50.130;8.526;2023-11-19T21:41:05;98630.50;;;7.45;68.57
27685;BME280;46113;50.130;8.526;2023-11-19T21:43:33;98643.25;;;7.53;67.86
27685;BME280;46113;50.130;8.526;2023-11-19T21:46:00;98641.72;;;7.49;67.35
27685;BME280;46113;50.130;8.526;2023-11-19T21:48:27;98641.63;;;7.50;66.19
27685;BME280;46113;50.130;8.526;2023-11-19T21:50:54;98643.59;;;7.47;67.10
27685;BME280;46113;50.130;8.526;2023-11-19T21:53:22;98640.97;;;7.63;66.59
27685;BME280;46113;50.130;8.526;2023-11-19T21:55:48;98651.31;;;7.66;65.90
27685;BME280;46113;50.130;8.526;2023-11-19T21:58:16;98644.44;;;7.79;65.35
27685;BME280;46113;50.130;8.526;2023-11-19T22:00:42;98647.16;;;7.78;65.39